Current Weather

Zamperini Fld

Torrance, California (KTOA)

Report from: Sunday, February 25, 2024 1:54 PM PST
Current time: Sunday, February 25, 2024 2:19 PM PST

Nearby weather – Weather history – Daily summaries
Weather forecast

Temperature18.0°C (64.4°F)
Dew point10.0°C (50.0°F)
Winds 4 kts (2.1 m/s, 4.6 mph) West (280°)
Visibility10 mi. (16.1 km)
Clouds Ceiling: Broken clouds 8,000 ft. (2,438 m)
Altimeter30.04 in.Hg (1017 mB)
Relative humidity60 %
Density altitude392 ft. (119 m)
Flight conditions Visual Meteorological Conditions
Raw dataKTOA 252154Z 28004KT 10SM BKN080 18/10 A3004
An error has occurred. This application may no longer respond until reloaded. Reload 🗙